Terminal Aerodrome Forecast
Issued by NWS

Home | Current Version | Previous Version | Text Only | Print | Product List | Glossary On
Versions: 1 2 3 4 5 6 7 8 9 10 11 12 13 14
000
FTUS46 KMTR 311500 AAA
TAFSJC
TAF AMD
KSJC 311500Z 3115/0112 VRB04KT P6SM FEW010 BKN150
     FM312000 30009KT P6SM FEW010
     FM010500 28005KT P6SM SKC=

USA.gov is the U.S. government's official web portal to all federal, state and local government web resources and services.